sensor_id;sensor_type;location;lat;lon;timestamp;temperature;humidity
47773;DHT22;33534;51.028;13.716;2022-07-24T00:01:34;17.70;71.90
47773;DHT22;33534;51.028;13.716;2022-07-24T00:04:00;17.70;71.90
47773;DHT22;33534;51.028;13.716;2022-07-24T00:06:27;17.70;71.20
47773;DHT22;33534;51.028;13.716;2022-07-24T00:08:52;17.60;71.00
47773;DHT22;33534;51.028;13.716;2022-07-24T00:11:18;17.60;71.10
47773;DHT22;33534;51.028;13.716;2022-07-24T00:13:44;17.60;71.10
47773;DHT22;33534;51.028;13.716;2022-07-24T00:16:09;17.50;71.40
47773;DHT22;33534;51.028;13.716;2022-07-24T00:18:35;17.50;71.30
47773;DHT22;33534;51.028;13.716;2022-07-24T00:21:01;17.50;71.20
47773;DHT22;33534;51.028;13.716;2022-07-24T00:23:27;17.40;71.20
47773;DHT22;33534;51.028;13.716;2022-07-24T00:25:53;17.40;71.40
47773;DHT22;33534;51.028;13.716;2022-07-24T00:28:19;17.40;71.20
47773;DHT22;33534;51.028;13.716;2022-07-24T00:30:45;17.30;71.10
47773;DHT22;33534;51.028;13.716;2022-07-24T00:33:11;17.20;71.30
47773;DHT22;33534;51.028;13.716;2022-07-24T00:35:37;17.30;71.60
47773;DHT22;33534;51.028;13.716;2022-07-24T00:38:03;17.30;71.70
47773;DHT22;33534;51.028;13.716;2022-07-24T00:40:28;17.30;71.80
47773;DHT22;33534;51.028;13.716;2022-07-24T00:42:56;17.20;72.20
47773;DHT22;33534;51.028;13.716;2022-07-24T00:45:21;17.20;72.60
47773;DHT22;33534;51.028;13.716;2022-07-24T00:47:47;17.20;72.90
47773;DHT22;33534;51.028;13.716;2022-07-24T00:50:12;17.20;72.90
47773;DHT22;33534;51.028;13.716;2022-07-24T00:52:38;17.10;73.20
47773;DHT22;33534;51.028;13.716;2022-07-24T00:55:04;17.10;72.70
47773;DHT22;33534;51.028;13.716;2022-07-24T00:57:31;17.10;72.70
47773;DHT22;33534;51.028;13.716;2022-07-24T00:59:57;17.00;72.80
47773;DHT22;33534;51.028;13.716;2022-07-24T01:02:22;17.00;73.00
47773;DHT22;33534;51.028;13.716;2022-07-24T01:04:49;17.00;73.10
47773;DHT22;33534;51.028;13.716;2022-07-24T01:07:16;17.00;73.40
47773;DHT22;33534;51.028;13.716;2022-07-24T01:09:42;16.90;73.80
47773;DHT22;33534;51.028;13.716;2022-07-24T01:12:08;17.00;73.70
47773;DHT22;33534;51.028;13.716;2022-07-24T01:14:34;17.00;73.90
47773;DHT22;33534;51.028;13.716;2022-07-24T01:17:00;17.00;73.90
47773;DHT22;33534;51.028;13.716;2022-07-24T01:19:26;17.00;73.60
47773;DHT22;33534;51.028;13.716;2022-07-24T01:21:53;16.90;73.80
47773;DHT22;33534;51.028;13.716;2022-07-24T01:24:20;16.90;74.00
47773;DHT22;33534;51.028;13.716;2022-07-24T01:26:46;16.80;74.20
47773;DHT22;33534;51.028;13.716;2022-07-24T01:29:12;16.80;74.50
47773;DHT22;33534;51.028;13.716;2022-07-24T01:31:38;16.70;74.90
47773;DHT22;33534;51.028;13.716;2022-07-24T01:34:04;16.70;75.20
47773;DHT22;33534;51.028;13.716;2022-07-24T01:36:30;16.70;75.30
47773;DHT22;33534;51.028;13.716;2022-07-24T01:38:56;16.70;75.60
47773;DHT22;33534;51.028;13.716;2022-07-24T01:41:21;16.70;75.50
47773;DHT22;33534;51.028;13.716;2022-07-24T01:43:47;16.60;75.50
47773;DHT22;33534;51.028;13.716;2022-07-24T01:46:12;16.50;75.80
47773;DHT22;33534;51.028;13.716;2022-07-24T01:48:42;16.50;75.90
47773;DHT22;33534;51.028;13.716;2022-07-24T01:51:09;16.50;76.00
47773;DHT22;33534;51.028;13.716;2022-07-24T01:53:35;16.40;75.90
47773;DHT22;33534;51.028;13.716;2022-07-24T01:56:01;16.50;75.90
47773;DHT22;33534;51.028;13.716;2022-07-24T01:58:27;16.30;76.00
47773;DHT22;33534;51.028;13.716;2022-07-24T02:00:52;16.30;76.10
47773;DHT22;33534;51.028;13.716;2022-07-24T02:03:18;16.30;76.20
47773;DHT22;33534;51.028;13.716;2022-07-24T02:05:44;16.30;76.00
47773;DHT22;33534;51.028;13.716;2022-07-24T02:08:10;16.20;76.10
47773;DHT22;33534;51.028;13.716;2022-07-24T02:10:36;16.20;76.20
47773;DHT22;33534;51.028;13.716;2022-07-24T02:13:01;16.20;76.10
47773;DHT22;33534;51.028;13.716;2022-07-24T02:15:27;16.10;76.10
47773;DHT22;33534;51.028;13.716;2022-07-24T02:17:57;16.10;76.00
47773;DHT22;33534;51.028;13.716;2022-07-24T02:20:23;16.00;76.10
47773;DHT22;33534;51.028;13.716;2022-07-24T02:22:49;16.00;76.30
47773;DHT22;33534;51.028;13.716;2022-07-24T02:25:15;16.00;76.00
47773;DHT22;33534;51.028;13.716;2022-07-24T02:27:42;16.10;76.10
47773;DHT22;33534;51.028;13.716;2022-07-24T02:30:11;16.00;75.90
47773;DHT22;33534;51.028;13.716;2022-07-24T02:32:37;16.00;75.80
47773;DHT22;33534;51.028;13.716;2022-07-24T02:35:03;16.00;76.10
47773;DHT22;33534;51.028;13.716;2022-07-24T02:37:28;16.00;75.80
47773;DHT22;33534;51.028;13.716;2022-07-24T02:39:54;15.90;75.80
47773;DHT22;33534;51.028;13.716;2022-07-24T02:42:20;15.90;75.90
47773;DHT22;33534;51.028;13.716;2022-07-24T02:44:45;15.80;76.20
47773;DHT22;33534;51.028;13.716;2022-07-24T02:47:11;15.70;76.30
47773;DHT22;33534;51.028;13.716;2022-07-24T02:49:37;15.70;76.50
47773;DHT22;33534;51.028;13.716;2022-07-24T02:52:03;15.60;76.70
47773;DHT22;33534;51.028;13.716;2022-07-24T02:54:29;15.60;76.60
47773;DHT22;33534;51.028;13.716;2022-07-24T02:56:54;15.50;76.80
47773;DHT22;33534;51.028;13.716;2022-07-24T02:59:20;15.50;76.90
47773;DHT22;33534;51.028;13.716;2022-07-24T03:01:45;15.50;77.00
47773;DHT22;33534;51.028;13.716;2022-07-24T03:04:11;15.40;77.10
47773;DHT22;33534;51.028;13.716;2022-07-24T03:06:37;15.50;77.00
47773;DHT22;33534;51.028;13.716;2022-07-24T03:09:03;15.40;77.10
47773;DHT22;33534;51.028;13.716;2022-07-24T03:11:29;15.40;77.10
47773;DHT22;33534;51.028;13.716;2022-07-24T03:13:54;15.40;77.00
47773;DHT22;33534;51.028;13.716;2022-07-24T03:16:20;15.40;77.00
47773;DHT22;33534;51.028;13.716;2022-07-24T03:18:46;15.40;77.00
47773;DHT22;33534;51.028;13.716;2022-07-24T03:21:17;15.40;76.80
47773;DHT22;33534;51.028;13.716;2022-07-24T03:23:43;15.40;77.00
47773;DHT22;33534;51.028;13.716;2022-07-24T03:26:09;15.50;76.60
47773;DHT22;33534;51.028;13.716;2022-07-24T03:28:35;15.40;76.70
47773;DHT22;33534;51.028;13.716;2022-07-24T03:31:00;15.40;76.90
47773;DHT22;33534;51.028;13.716;2022-07-24T03:33:27;15.40;76.60
47773;DHT22;33534;51.028;13.716;2022-07-24T03:35:53;15.40;76.40
47773;DHT22;33534;51.028;13.716;2022-07-24T03:38:19;15.50;76.20
47773;DHT22;33534;51.028;13.716;2022-07-24T03:40:44;15.50;75.80
47773;DHT22;33534;51.028;13.716;2022-07-24T03:43:10;15.50;75.80
47773;DHT22;33534;51.028;13.716;2022-07-24T03:45:35;15.40;76.00
47773;DHT22;33534;51.028;13.716;2022-07-24T03:48:02;15.50;75.70
47773;DHT22;33534;51.028;13.716;2022-07-24T03:50:28;15.50;75.60
47773;DHT22;33534;51.028;13.716;2022-07-24T03:52:54;15.60;75.40
47773;DHT22;33534;51.028;13.716;2022-07-24T03:55:19;16.00;74.80
47773;DHT22;33534;51.028;13.716;2022-07-24T03:57:45;16.90;71.50
47773;DHT22;33534;51.028;13.716;2022-07-24T04:00:11;17.60;68.20
47773;DHT22;33534;51.028;13.716;2022-07-24T04:02:37;18.50;66.40
47773;DHT22;33534;51.028;13.716;2022-07-24T04:05:03;19.00;63.10
47773;DHT22;33534;51.028;13.716;2022-07-24T04:07:29;19.50;62.30
47773;DHT22;33534;51.028;13.716;2022-07-24T04:09:54;20.50;59.40
47773;DHT22;33534;51.028;13.716;2022-07-24T04:12:20;21.00;57.00
47773;DHT22;33534;51.028;13.716;2022-07-24T04:14:46;21.80;53.80
47773;DHT22;33534;51.028;13.716;2022-07-24T04:17:11;21.50;54.40
47773;DHT22;33534;51.028;13.716;2022-07-24T04:19:37;22.40;52.40
47773;DHT22;33534;51.028;13.716;2022-07-24T04:22:03;22.50;51.70
47773;DHT22;33534;51.028;13.716;2022-07-24T04:24:28;23.20;50.10
47773;DHT22;33534;51.028;13.716;2022-07-24T04:26:54;23.60;48.40
47773;DHT22;33534;51.028;13.716;2022-07-24T04:29:19;24.50;45.90
47773;DHT22;33534;51.028;13.716;2022-07-24T04:31:45;24.80;45.70
47773;DHT22;33534;51.028;13.716;2022-07-24T04:34:11;25.40;43.60
47773;DHT22;33534;51.028;13.716;2022-07-24T04:36:36;25.30;43.40
47773;DHT22;33534;51.028;13.716;2022-07-24T04:39:02;25.60;43.40
47773;DHT22;33534;51.028;13.716;2022-07-24T04:41:28;26.40;41.30
47773;DHT22;33534;51.028;13.716;2022-07-24T04:43:55;26.90;40.80
47773;DHT22;33534;51.028;13.716;2022-07-24T04:46:20;28.00;38.50
47773;DHT22;33534;51.028;13.716;2022-07-24T04:48:46;28.50;37.70
47773;DHT22;33534;51.028;13.716;2022-07-24T04:51:11;29.40;35.90
47773;DHT22;33534;51.028;13.716;2022-07-24T04:53:37;30.10;34.50
47773;DHT22;33534;51.028;13.716;2022-07-24T04:56:03;30.10;34.00
47773;DHT22;33534;51.028;13.716;2022-07-24T04:58:28;30.20;34.10
47773;DHT22;33534;51.028;13.716;2022-07-24T05:00:54;30.30;34.10
47773;DHT22;33534;51.028;13.716;2022-07-24T05:03:20;29.90;34.10
47773;DHT22;33534;51.028;13.716;2022-07-24T05:05:45;30.10;34.20
47773;DHT22;33534;51.028;13.716;2022-07-24T05:08:11;30.50;33.90
47773;DHT22;33534;51.028;13.716;2022-07-24T05:10:37;30.60;33.60
47773;DHT22;33534;51.028;13.716;2022-07-24T05:13:02;31.40;32.40
47773;DHT22;33534;51.028;13.716;2022-07-24T05:15:28;31.80;31.80
47773;DHT22;33534;51.028;13.716;2022-07-24T05:17:53;32.60;30.60
47773;DHT22;33534;51.028;13.716;2022-07-24T05:20:19;33.30;29.50
47773;DHT22;33534;51.028;13.716;2022-07-24T05:22:45;33.10;29.60
47773;DHT22;33534;51.028;13.716;2022-07-24T05:25:10;33.40;29.10
47773;DHT22;33534;51.028;13.716;2022-07-24T05:27:36;33.70;28.80
47773;DHT22;33534;51.028;13.716;2022-07-24T05:30:04;34.40;27.70
47773;DHT22;33534;51.028;13.716;2022-07-24T05:32:30;34.40;27.50
47773;DHT22;33534;51.028;13.716;2022-07-24T05:34:57;33.20;28.80
47773;DHT22;33534;51.028;13.716;2022-07-24T05:37:22;32.40;29.90
47773;DHT22;33534;51.028;13.716;2022-07-24T05:39:48;31.90;30.70
47773;DHT22;33534;51.028;13.716;2022-07-24T05:42:15;31.40;31.90
47773;DHT22;33534;51.028;13.716;2022-07-24T05:44:42;32.10;30.30
47773;DHT22;33534;51.028;13.716;2022-07-24T05:47:07;32.80;29.50
47773;DHT22;33534;51.028;13.716;2022-07-24T05:49:33;30.70;32.50
47773;DHT22;33534;51.028;13.716;2022-07-24T05:51:58;29.70;34.60
47773;DHT22;33534;51.028;13.716;2022-07-24T05:54:24;30.90;32.90
47773;DHT22;33534;51.028;13.716;2022-07-24T05:56:50;30.80;32.60
47773;DHT22;33534;51.028;13.716;2022-07-24T05:59:16;30.30;34.10
47773;DHT22;33534;51.028;13.716;2022-07-24T06:01:41;32.10;31.30
47773;DHT22;33534;51.028;13.716;2022-07-24T06:04:07;31.00;32.40
47773;DHT22;33534;51.028;13.716;2022-07-24T06:06:32;29.60;34.90
47773;DHT22;33534;51.028;13.716;2022-07-24T06:08:58;28.90;35.70
47773;DHT22;33534;51.028;13.716;2022-07-24T06:11:23;29.30;36.00
47773;DHT22;33534;51.028;13.716;2022-07-24T06:13:49;30.80;33.30
47773;DHT22;33534;51.028;13.716;2022-07-24T06:16:15;31.90;31.60
47773;DHT22;33534;51.028;13.716;2022-07-24T06:18:41;32.50;30.10
47773;DHT22;33534;51.028;13.716;2022-07-24T06:21:06;31.60;31.60
47773;DHT22;33534;51.028;13.716;2022-07-24T06:23:32;30.40;33.30
47773;DHT22;33534;51.028;13.716;2022-07-24T06:25:58;30.40;33.80
47773;DHT22;33534;51.028;13.716;2022-07-24T06:28:24;31.90;31.40
47773;DHT22;33534;51.028;13.716;2022-07-24T06:30:49;33.80;28.80
47773;DHT22;33534;51.028;13.716;2022-07-24T06:33:15;33.80;28.60
47773;DHT22;33534;51.028;13.716;2022-07-24T06:35:41;33.40;28.70
47773;DHT22;33534;51.028;13.716;2022-07-24T06:38:07;32.80;29.60
47773;DHT22;33534;51.028;13.716;2022-07-24T06:40:33;32.90;29.40
47773;DHT22;33534;51.028;13.716;2022-07-24T06:43:00;31.40;31.50
47773;DHT22;33534;51.028;13.716;2022-07-24T06:45:25;31.30;31.80
47773;DHT22;33534;51.028;13.716;2022-07-24T06:47:51;32.00;30.80
47773;DHT22;33534;51.028;13.716;2022-07-24T06:50:17;30.80;32.70
47773;DHT22;33534;51.028;13.716;2022-07-24T06:52:42;29.80;34.30
47773;DHT22;33534;51.028;13.716;2022-07-24T06:55:09;30.10;34.00
47773;DHT22;33534;51.028;13.716;2022-07-24T06:57:35;31.40;32.00
47773;DHT22;33534;51.028;13.716;2022-07-24T07:00:01;31.60;31.40
47773;DHT22;33534;51.028;13.716;2022-07-24T07:02:26;32.50;29.80
47773;DHT22;33534;51.028;13.716;2022-07-24T07:04:52;32.60;29.60
47773;DHT22;33534;51.028;13.716;2022-07-24T07:07:18;31.60;31.00
47773;DHT22;33534;51.028;13.716;2022-07-24T07:09:43;32.40;29.70
47773;DHT22;33534;51.028;13.716;2022-07-24T07:12:09;32.90;29.20
47773;DHT22;33534;51.028;13.716;2022-07-24T07:14:36;34.50;27.30
47773;DHT22;33534;51.028;13.716;2022-07-24T07:17:02;35.90;25.90
47773;DHT22;33534;51.028;13.716;2022-07-24T07:19:28;35.40;25.70
47773;DHT22;33534;51.028;13.716;2022-07-24T07:21:53;34.40;26.80
47773;DHT22;33534;51.028;13.716;2022-07-24T07:24:19;32.10;29.00
47773;DHT22;33534;51.028;13.716;2022-07-24T07:26:45;32.10;30.10
47773;DHT22;33534;51.028;13.716;2022-07-24T07:29:10;33.50;27.60
47773;DHT22;33534;51.028;13.716;2022-07-24T07:31:36;33.10;27.70
47773;DHT22;33534;51.028;13.716;2022-07-24T07:34:02;33.50;27.40
47773;DHT22;33534;51.028;13.716;2022-07-24T07:36:27;34.60;26.10
47773;DHT22;33534;51.028;13.716;2022-07-24T07:38:53;34.40;25.60
47773;DHT22;33534;51.028;13.716;2022-07-24T07:41:19;34.10;26.30
47773;DHT22;33534;51.028;13.716;2022-07-24T07:43:48;34.20;26.60
47773;DHT22;33534;51.028;13.716;2022-07-24T07:46:14;34.00;26.70
47773;DHT22;33534;51.028;13.716;2022-07-24T07:48:40;34.00;26.10
47773;DHT22;33534;51.028;13.716;2022-07-24T07:51:06;34.00;26.30
47773;DHT22;33534;51.028;13.716;2022-07-24T07:53:31;35.00;25.40
47773;DHT22;33534;51.028;13.716;2022-07-24T07:55:57;35.90;24.50
47773;DHT22;33534;51.028;13.716;2022-07-24T07:58:23;37.10;23.40
47773;DHT22;33534;51.028;13.716;2022-07-24T08:00:49;37.90;21.90
47773;DHT22;33534;51.028;13.716;2022-07-24T08:03:15;38.90;21.50
47773;DHT22;33534;51.028;13.716;2022-07-24T08:05:40;37.60;21.50
47773;DHT22;33534;51.028;13.716;2022-07-24T08:08:06;35.50;23.70
47773;DHT22;33534;51.028;13.716;2022-07-24T08:10:32;34.00;25.30
47773;DHT22;33534;51.028;13.716;2022-07-24T08:12:57;33.80;25.90
47773;DHT22;33534;51.028;13.716;2022-07-24T08:15:23;32.90;27.40
47773;DHT22;33534;51.028;13.716;2022-07-24T08:17:56;33.50;26.60
47773;DHT22;33534;51.028;13.716;2022-07-24T08:20:23;32.30;27.20
47773;DHT22;33534;51.028;13.716;2022-07-24T08:22:49;31.80;28.00
47773;DHT22;33534;51.028;13.716;2022-07-24T08:25:18;31.40;28.60
47773;DHT22;33534;51.028;13.716;2022-07-24T08:27:44;31.40;28.30
47773;DHT22;33534;51.028;13.716;2022-07-24T08:30:10;32.40;27.40
47773;DHT22;33534;51.028;13.716;2022-07-24T08:32:36;34.40;25.10
47773;DHT22;33534;51.028;13.716;2022-07-24T08:35:02;34.40;25.10
47773;DHT22;33534;51.028;13.716;2022-07-24T08:37:28;35.70;24.30
47773;DHT22;33534;51.028;13.716;2022-07-24T08:39:53;36.80;23.10
47773;DHT22;33534;51.028;13.716;2022-07-24T08:42:22;37.70;21.90
47773;DHT22;33534;51.028;13.716;2022-07-24T08:44:48;36.70;22.40
47773;DHT22;33534;51.028;13.716;2022-07-24T08:47:14;36.50;22.90
47773;DHT22;33534;51.028;13.716;2022-07-24T08:49:41;37.00;22.30
47773;DHT22;33534;51.028;13.716;2022-07-24T08:52:09;37.70;22.00
47773;DHT22;33534;51.028;13.716;2022-07-24T08:54:36;37.70;21.30
47773;DHT22;33534;51.028;13.716;2022-07-24T08:57:03;35.70;23.20
47773;DHT22;33534;51.028;13.716;2022-07-24T08:59:29;34.50;24.70
47773;DHT22;33534;51.028;13.716;2022-07-24T09:01:55;34.70;25.00
47773;DHT22;33534;51.028;13.716;2022-07-24T09:04:38;35.40;24.60
47773;DHT22;33534;51.028;13.716;2022-07-24T09:07:09;36.40;23.20
47773;DHT22;33534;51.028;13.716;2022-07-24T09:09:43;36.50;22.60
47773;DHT22;33534;51.028;13.716;2022-07-24T09:12:13;35.10;23.60
47773;DHT22;33534;51.028;13.716;2022-07-24T09:14:41;35.40;23.60
47773;DHT22;33534;51.028;13.716;2022-07-24T09:17:12;34.90;24.00
47773;DHT22;33534;51.028;13.716;2022-07-24T09:19:58;34.30;25.30
47773;DHT22;33534;51.028;13.716;2022-07-24T09:22:40;34.90;25.00
47773;DHT22;33534;51.028;13.716;2022-07-24T09:27:35;35.40;23.60
47773;DHT22;33534;51.028;13.716;2022-07-24T09:30:02;34.10;25.30
47773;DHT22;33534;51.028;13.716;2022-07-24T09:32:29;33.60;26.20
47773;DHT22;33534;51.028;13.716;2022-07-24T09:34:55;34.20;25.80
47773;DHT22;33534;51.028;13.716;2022-07-24T09:37:22;34.00;25.10
47773;DHT22;33534;51.028;13.716;2022-07-24T09:39:47;32.50;26.80
47773;DHT22;33534;51.028;13.716;2022-07-24T09:42:13;31.60;28.00
47773;DHT22;33534;51.028;13.716;2022-07-24T09:44:39;31.10;29.00
47773;DHT22;33534;51.028;13.716;2022-07-24T09:47:09;30.90;29.50
47773;DHT22;33534;51.028;13.716;2022-07-24T09:49:36;31.00;29.60
47773;DHT22;33534;51.028;13.716;2022-07-24T09:54:32;31.00;29.40
47773;DHT22;33534;51.028;13.716;2022-07-24T09:59:41;31.50;28.50
47773;DHT22;33534;51.028;13.716;2022-07-24T10:02:13;32.10;27.50
47773;DHT22;33534;51.028;13.716;2022-07-24T10:04:41;31.70;27.40
47773;DHT22;33534;51.028;13.716;2022-07-24T10:07:10;31.40;27.60
47773;DHT22;33534;51.028;13.716;2022-07-24T10:09:40;31.00;29.30
47773;DHT22;33534;51.028;13.716;2022-07-24T10:12:12;31.60;27.80
47773;DHT22;33534;51.028;13.716;2022-07-24T10:14:37;31.90;27.40
47773;DHT22;33534;51.028;13.716;2022-07-24T10:17:08;31.80;28.10
47773;DHT22;33534;51.028;13.716;2022-07-24T10:19:48;32.00;27.90
47773;DHT22;33534;51.028;13.716;2022-07-24T10:22:18;31.50;29.10
47773;DHT22;33534;51.028;13.716;2022-07-24T10:25:07;31.50;28.80
47773;DHT22;33534;51.028;13.716;2022-07-24T10:27:36;31.20;28.70
47773;DHT22;33534;51.028;13.716;2022-07-24T10:30:07;30.80;29.50
47773;DHT22;33534;51.028;13.716;2022-07-24T10:32:35;30.00;30.40
47773;DHT22;33534;51.028;13.716;2022-07-24T10:40:22;28.80;33.20
47773;DHT22;33534;51.028;13.716;2022-07-24T10:45:40;29.40;31.50
47773;DHT22;33534;51.028;13.716;2022-07-24T10:53:25;29.00;31.90
47773;DHT22;33534;51.028;13.716;2022-07-24T10:55:51;28.50;32.30
47773;DHT22;33534;51.028;13.716;2022-07-24T10:58:17;27.70;33.70
47773;DHT22;33534;51.028;13.716;2022-07-24T11:00:46;27.40;34.20
47773;DHT22;33534;51.028;13.716;2022-07-24T11:03:20;27.40;34.70
47773;DHT22;33534;51.028;13.716;2022-07-24T11:06:10;27.50;34.70
47773;DHT22;33534;51.028;13.716;2022-07-24T11:13:40;28.00;34.20
47773;DHT22;33534;51.028;13.716;2022-07-24T11:21:21;27.30;34.20
47773;DHT22;33534;51.028;13.716;2022-07-24T11:26:40;28.20;33.70
47773;DHT22;33534;51.028;13.716;2022-07-24T11:29:29;28.60;32.90
47773;DHT22;33534;51.028;13.716;2022-07-24T11:34:34;29.00;31.60
47773;DHT22;33534;51.028;13.716;2022-07-24T11:37:02;29.20;30.90
47773;DHT22;33534;51.028;13.716;2022-07-24T11:39:32;29.20;31.20
47773;DHT22;33534;51.028;13.716;2022-07-24T11:42:01;29.30;31.10
47773;DHT22;33534;51.028;13.716;2022-07-24T11:44:31;29.20;30.90
47773;DHT22;33534;51.028;13.716;2022-07-24T11:46:59;29.10;31.30
47773;DHT22;33534;51.028;13.716;2022-07-24T11:49:27;29.00;31.10
47773;DHT22;33534;51.028;13.716;2022-07-24T11:51:54;29.00;30.80
47773;DHT22;33534;51.028;13.716;2022-07-24T11:54:26;28.90;31.60
47773;DHT22;33534;51.028;13.716;2022-07-24T11:56:53;28.90;32.00
47773;DHT22;33534;51.028;13.716;2022-07-24T11:59:31;29.00;31.70
47773;DHT22;33534;51.028;13.716;2022-07-24T12:02:05;29.00;30.90
47773;DHT22;33534;51.028;13.716;2022-07-24T12:04:31;29.10;31.40
47773;DHT22;33534;51.028;13.716;2022-07-24T12:06:57;29.10;31.50
47773;DHT22;33534;51.028;13.716;2022-07-24T12:09:23;28.80;31.60
47773;DHT22;33534;51.028;13.716;2022-07-24T12:11:48;28.10;31.90
47773;DHT22;33534;51.028;13.716;2022-07-24T12:14:16;28.00;33.00
47773;DHT22;33534;51.028;13.716;2022-07-24T12:16:43;28.30;31.40
47773;DHT22;33534;51.028;13.716;2022-07-24T12:19:27;28.40;31.10
47773;DHT22;33534;51.028;13.716;2022-07-24T12:21:54;28.70;31.80
47773;DHT22;33534;51.028;13.716;2022-07-24T12:24:20;28.70;31.30
47773;DHT22;33534;51.028;13.716;2022-07-24T12:26:58;28.80;30.90
47773;DHT22;33534;51.028;13.716;2022-07-24T12:29:26;28.90;30.90
47773;DHT22;33534;51.028;13.716;2022-07-24T12:32:12;28.70;30.60
47773;DHT22;33534;51.028;13.716;2022-07-24T12:34:46;28.10;31.40
47773;DHT22;33534;51.028;13.716;2022-07-24T12:37:20;28.00;31.80
47773;DHT22;33534;51.028;13.716;2022-07-24T12:39:50;28.00;31.80
47773;DHT22;33534;51.028;13.716;2022-07-24T12:42:17;28.10;31.90
47773;DHT22;33534;51.028;13.716;2022-07-24T12:44:44;28.40;31.50
47773;DHT22;33534;51.028;13.716;2022-07-24T12:47:11;28.30;31.30
47773;DHT22;33534;51.028;13.716;2022-07-24T12:49:42;28.20;30.90
47773;DHT22;33534;51.028;13.716;2022-07-24T12:54:46;28.30;31.00
47773;DHT22;33534;51.028;13.716;2022-07-24T12:57:13;28.10;31.30
47773;DHT22;33534;51.028;13.716;2022-07-24T12:59:41;28.00;31.60
47773;DHT22;33534;51.028;13.716;2022-07-24T13:02:12;28.00;31.30
47773;DHT22;33534;51.028;13.716;2022-07-24T13:04:52;28.10;32.00
47773;DHT22;33534;51.028;13.716;2022-07-24T13:07:21;28.30;32.20
47773;DHT22;33534;51.028;13.716;2022-07-24T13:09:47;28.60;31.40
47773;DHT22;33534;51.028;13.716;2022-07-24T13:12:14;28.70;30.90
47773;DHT22;33534;51.028;13.716;2022-07-24T13:14:39;28.90;30.90
47773;DHT22;33534;51.028;13.716;2022-07-24T13:17:08;29.00;30.60
47773;DHT22;33534;51.028;13.716;2022-07-24T13:19:36;29.20;30.00
47773;DHT22;33534;51.028;13.716;2022-07-24T13:22:01;28.80;30.10
47773;DHT22;33534;51.028;13.716;2022-07-24T13:24:27;28.60;30.80
47773;DHT22;33534;51.028;13.716;2022-07-24T13:26:55;28.50;30.50
47773;DHT22;33534;51.028;13.716;2022-07-24T13:29:21;28.70;30.60
47773;DHT22;33534;51.028;13.716;2022-07-24T13:31:46;28.90;30.10
47773;DHT22;33534;51.028;13.716;2022-07-24T13:34:12;28.70;30.20
47773;DHT22;33534;51.028;13.716;2022-07-24T13:36:38;28.90;31.00
47773;DHT22;33534;51.028;13.716;2022-07-24T13:39:05;29.00;30.20
47773;DHT22;33534;51.028;13.716;2022-07-24T13:41:32;29.00;30.30
47773;DHT22;33534;51.028;13.716;2022-07-24T13:43:58;29.10;29.50
47773;DHT22;33534;51.028;13.716;2022-07-24T13:46:24;29.10;29.70
47773;DHT22;33534;51.028;13.716;2022-07-24T13:48:50;29.20;29.90
47773;DHT22;33534;51.028;13.716;2022-07-24T13:51:17;29.20;29.10
47773;DHT22;33534;51.028;13.716;2022-07-24T13:53:43;29.20;29.60
47773;DHT22;33534;51.028;13.716;2022-07-24T13:56:09;29.00;29.70
47773;DHT22;33534;51.028;13.716;2022-07-24T13:58:36;28.90;29.60
47773;DHT22;33534;51.028;13.716;2022-07-24T14:01:04;28.90;29.90
47773;DHT22;33534;51.028;13.716;2022-07-24T14:03:31;29.10;30.10
47773;DHT22;33534;51.028;13.716;2022-07-24T14:05:56;29.20;30.00
47773;DHT22;33534;51.028;13.716;2022-07-24T14:08:22;29.40;29.70
47773;DHT22;33534;51.028;13.716;2022-07-24T14:10:48;29.20;28.80
47773;DHT22;33534;51.028;13.716;2022-07-24T14:13:14;29.20;29.20
47773;DHT22;33534;51.028;13.716;2022-07-24T14:15:40;29.10;29.00
47773;DHT22;33534;51.028;13.716;2022-07-24T14:18:05;29.10;29.30
47773;DHT22;33534;51.028;13.716;2022-07-24T14:20:31;29.00;28.80
47773;DHT22;33534;51.028;13.716;2022-07-24T14:22:57;28.90;29.00
47773;DHT22;33534;51.028;13.716;2022-07-24T14:25:23;28.90;29.30
47773;DHT22;33534;51.028;13.716;2022-07-24T14:27:48;28.50;29.50
47773;DHT22;33534;51.028;13.716;2022-07-24T14:30:14;28.40;29.60
47773;DHT22;33534;51.028;13.716;2022-07-24T14:32:40;28.40;29.80
47773;DHT22;33534;51.028;13.716;2022-07-24T14:35:07;28.40;29.70
47773;DHT22;33534;51.028;13.716;2022-07-24T14:37:35;28.60;29.70
47773;DHT22;33534;51.028;13.716;2022-07-24T14:40:05;28.70;29.70
47773;DHT22;33534;51.028;13.716;2022-07-24T14:42:32;28.90;29.80
47773;DHT22;33534;51.028;13.716;2022-07-24T14:44:58;29.00;29.30
47773;DHT22;33534;51.028;13.716;2022-07-24T14:47:23;29.00;30.00
47773;DHT22;33534;51.028;13.716;2022-07-24T14:49:49;29.20;29.50
47773;DHT22;33534;51.028;13.716;2022-07-24T14:52:15;29.20;29.60
47773;DHT22;33534;51.028;13.716;2022-07-24T14:54:44;29.30;29.10
47773;DHT22;33534;51.028;13.716;2022-07-24T14:57:10;29.20;29.40
47773;DHT22;33534;51.028;13.716;2022-07-24T14:59:36;29.10;28.90
47773;DHT22;33534;51.028;13.716;2022-07-24T15:02:01;28.90;28.80
47773;DHT22;33534;51.028;13.716;2022-07-24T15:04:27;28.90;29.80
47773;DHT22;33534;51.028;13.716;2022-07-24T15:06:52;28.90;29.00
47773;DHT22;33534;51.028;13.716;2022-07-24T15:09:18;29.00;29.30
47773;DHT22;33534;51.028;13.716;2022-07-24T15:11:44;29.10;29.10
47773;DHT22;33534;51.028;13.716;2022-07-24T15:14:09;29.20;28.90
47773;DHT22;33534;51.028;13.716;2022-07-24T15:16:35;29.10;28.50
47773;DHT22;33534;51.028;13.716;2022-07-24T15:19:00;29.00;28.90
47773;DHT22;33534;51.028;13.716;2022-07-24T15:21:26;29.10;28.50
47773;DHT22;33534;51.028;13.716;2022-07-24T15:23:51;29.00;28.80
47773;DHT22;33534;51.028;13.716;2022-07-24T15:26:17;29.10;28.90
47773;DHT22;33534;51.028;13.716;2022-07-24T15:28:43;29.20;28.90
47773;DHT22;33534;51.028;13.716;2022-07-24T15:31:08;28.90;28.40
47773;DHT22;33534;51.028;13.716;2022-07-24T15:33:35;28.90;28.60
47773;DHT22;33534;51.028;13.716;2022-07-24T15:36:01;28.90;29.30
47773;DHT22;33534;51.028;13.716;2022-07-24T15:38:27;28.90;28.40
47773;DHT22;33534;51.028;13.716;2022-07-24T15:40:52;28.80;28.70
47773;DHT22;33534;51.028;13.716;2022-07-24T15:43:18;28.90;29.20
47773;DHT22;33534;51.028;13.716;2022-07-24T15:45:43;28.90;28.80
47773;DHT22;33534;51.028;13.716;2022-07-24T15:48:09;28.80;29.00
47773;DHT22;33534;51.028;13.716;2022-07-24T15:50:35;28.90;29.00
47773;DHT22;33534;51.028;13.716;2022-07-24T15:53:00;28.70;28.40